Teruel, Spain
Current Conditions -  °F | °C
As of 10:00 PM on Tuesday 27 Jan 2015 (Local Time) from LETL Reporting Station
Scattered Clouds Scattered Clouds  
Wind Chill: 27°   Ceiling: Unl
Heat Index: 36°   Visibility: 6mi
Dew Point: 30°   Wind: 13mph
Humidity: 81%   Direction: 330°NNW
Pressure: 30.24"   Gusts: NA
Location:  40.34°N, 1.11°W
Report Text: LETL 272100Z AUTO 33011KT 9999 SCT027/// 02/M01 Q1024
Loading
Personal Weather Stations






























Interactive Weather Map New forecast layout! Learn more

10-Day Weather Forecast

Advertisements
Track Severe Weather on mobile